Time;durP1;ratioP1;P1;durP2;ratioP2;P2;SDS_P1;SDS_P2;PMS_P1;PMS_P2;Temp;Humidity;BMP_temperature;BMP_pressure;BME280_temperature;BME280_humidity;BME280_pressure;Samples;Min_cycle;Max_cycle;Signal;HPM_P1;HPM_P2
2023/06/24 00:01:23;;;;;;;;;3.75;3.00;;;;;25.87;41.71;102033.53;4957194;28;45426;-42
2023/06/24 00:03:53;;;;;;;;;4.50;4.50;;;;;25.88;41.75;102041.38;4957054;28;45262;-43
2023/06/24 00:06:22;;;;;;;;;4.75;3.50;;;;;25.88;41.65;102032.56;4957425;28;45550;-45
2023/06/24 00:08:49;;;;;;;;;3.75;3.75;;;;;25.87;41.11;102034.34;4959408;28;45469;-45
2023/06/24 00:11:15;;;;;;;;;5.00;4.00;;;;;25.87;41.69;102031.69;4960392;28;45532;-44
2023/06/24 00:13:41;;;;;;;;;5.00;5.00;;;;;25.84;41.59;102023.94;4960583;28;45376;-43
2023/06/24 00:16:07;;;;;;;;;5.75;3.75;;;;;25.83;41.66;102027.53;4961008;28;45713;-45
2023/06/24 00:18:34;;;;;;;;;3.00;3.00;;;;;25.87;41.20;102028.22;4960699;28;46780;-42
2023/06/24 00:21:01;;;;;;;;;6.00;6.00;;;;;25.85;41.28;102030.94;4960425;28;45860;-46
2023/06/24 00:23:28;;;;;;;;;5.50;5.25;;;;;25.87;41.80;102028.22;4960593;28;45451;-44
2023/06/24 00:25:54;;;;;;;;;7.75;4.75;;;;;25.84;41.22;102029.25;4960687;28;45512;-43
2023/06/24 00:28:20;;;;;;;;;5.50;3.50;;;;;25.84;41.23;102023.94;4960225;28;46622;-45
2023/06/24 00:30:49;;;;;;;;;5.25;5.00;;;;;25.84;41.22;102023.94;4960144;28;45241;-42
2023/06/24 00:33:15;;;;;;;;;5.75;5.00;;;;;25.84;40.98;102023.94;4960329;28;45362;-45
2023/06/24 00:35:41;;;;;;;;;2.25;2.25;;;;;25.83;41.65;102027.53;4960472;28;45386;-42
2023/06/24 00:38:07;;;;;;;;;5.00;3.00;;;;;25.83;41.63;102030.19;4960230;28;45337;-42
2023/06/24 00:40:33;;;;;;;;;4.25;4.25;;;;;25.82;41.28;102025.84;4958784;28;45346;-44
2023/06/24 00:42:59;;;;;;;;;5.25;4.00;;;;;25.83;41.09;102026.66;4960257;28;45264;-46
2023/06/24 00:45:25;;;;;;;;;3.00;3.00;;;;;25.83;41.08;102027.53;4960052;28;45587;-49
2023/06/24 00:47:51;;;;;;;;;5.00;4.00;;;;;25.82;41.14;102020.50;4959880;28;45608;-46
2023/06/24 00:50:17;;;;;;;;;3.00;3.00;;;;;25.81;40.87;102024.13;4959992;28;45597;-46
2023/06/24 00:52:43;;;;;;;;;3.25;2.75;;;;;25.82;41.15;102024.97;4960125;28;45238;-42
2023/06/24 00:55:15;;;;;;;;;4.00;3.00;;;;;25.81;41.23;102017.94;4960446;28;45268;-43
2023/06/24 00:57:42;;;;;;;;;4.00;4.00;;;;;25.80;40.91;102022.41;4959761;28;46401;-49
2023/06/24 01:00:11;;;;;;;;;5.25;4.00;;;;;25.80;41.03;102027.72;4960234;28;45308;-50
2023/06/24 01:02:37;;;;;;;;;5.00;5.00;;;;;25.79;41.22;102028.66;4960089;28;45420;-43
2023/06/24 01:05:07;;;;;;;;;2.25;2.25;;;;;25.79;40.78;102026.00;4959951;28;45352;-45
2023/06/24 01:07:35;;;;;;;;;4.25;4.25;;;;;25.77;41.14;102027.88;4959529;28;46889;-44
2023/06/24 01:10:02;;;;;;;;;4.25;3.75;;;;;25.75;41.09;102021.81;4959659;28;45773;-43
2023/06/24 01:12:27;;;;;;;;;3.00;3.00;;;;;25.75;40.99;102024.47;4959637;28;45407;-43
2023/06/24 01:14:52;;;;;;;;;3.00;3.00;;;;;25.77;41.12;102019.91;4959810;28;45484;-42
2023/06/24 01:17:28;;;;;;;;;5.25;5.25;;;;;25.77;41.04;102025.22;4959517;28;45455;-41
2023/06/24 01:20:15;;;;;;;;;3.50;3.50;;;;;25.77;41.10;102033.19;4958912;28;45325;-46
2023/06/24 01:23:11;;;;;;;;;4.75;3.00;;;;;25.76;41.08;102024.38;4959962;28;45320;-44
2023/06/24 01:25:49;;;;;;;;;7.25;4.75;;;;;25.76;40.87;102026.19;4960050;28;45312;-45
2023/06/24 01:28:33;;;;;;;;;4.00;4.00;;;;;25.72;41.22;102011.38;4959459;28;45394;-46
2023/06/24 01:31:34;;;;;;;;;3.75;3.75;;;;;25.74;41.17;102012.16;4958059;28;45248;-44
2023/06/24 01:34:27;;;;;;;;;3.00;3.00;;;;;25.74;41.31;102010.34;4959220;28;45422;-44
2023/06/24 01:37:01;;;;;;;;;4.00;2.75;;;;;25.73;40.66;102007.78;4959524;28;45451;-45
2023/06/24 01:39:31;;;;;;;;;3.75;3.75;;;;;25.73;40.78;102015.75;4959063;28;47471;-42
2023/06/24 01:42:06;;;;;;;;;3.25;3.25;;;;;25.72;40.34;102011.38;4959130;28;45357;-45
2023/06/24 01:44:33;;;;;;;;;3.75;3.75;;;;;25.71;41.03;102015.00;4959243;28;45299;-41
2023/06/24 01:46:59;;;;;;;;;5.00;3.75;;;;;25.71;40.71;102007.88;4959468;28;45383;-42
2023/06/24 01:49:29;;;;;;;;;4.25;3.75;;;;;25.70;40.86;102010.63;4958920;28;46400;-44
2023/06/24 01:51:58;;;;;;;;;3.00;3.00;;;;;25.69;40.71;102006.25;4958980;28;45836;-44
2023/06/24 01:54:26;;;;;;;;;6.25;4.00;;;;;25.70;40.57;102005.31;4959026;28;45270;-44
2023/06/24 01:56:54;;;;;;;;;5.00;4.75;;;;;25.71;40.69;102007.03;4959142;28;45519;-42
2023/06/24 01:59:21;;;;;;;;;3.75;3.00;;;;;25.66;41.01;101994.03;4958756;28;46159;-42
2023/06/24 02:01:48;;;;;;;;;6.25;3.75;;;;;25.69;40.85;102003.59;4958877;28;45249;-45
2023/06/24 02:04:15;;;;;;;;;7.25;5.00;;;;;25.68;40.59;102002.75;4958826;28;45186;-45
2023/06/24 02:06:42;;;;;;;;;5.25;4.25;;;;;25.67;40.72;101994.88;4959263;28;45338;-45
2023/06/24 02:09:10;;;;;;;;;2.50;2.50;;;;;25.68;40.65;101997.44;4957416;28;46429;-44
2023/06/24 02:11:38;;;;;;;;;7.00;4.00;;;;;25.67;40.84;102001.03;4958728;28;45312;-42
2023/06/24 02:14:05;;;;;;;;;2.75;2.75;;;;;25.66;40.62;101998.47;4957523;28;45263;-44
2023/06/24 02:16:33;;;;;;;;;6.00;3.50;;;;;25.65;40.86;101997.63;4957487;28;45642;-42
2023/06/24 02:19:00;;;;;;;;;3.00;3.00;;;;;25.66;40.90;102003.78;4958455;28;46269;-43
2023/06/24 02:21:26;;;;;;;;;4.75;3.75;;;;;25.67;40.77;102013.44;4958519;28;45966;-42
2023/06/24 02:23:53;;;;;;;;;0.25;0.25;;;;;25.65;40.80;102012.69;4958676;28;45404;-44
2023/06/24 02:26:20;;;;;;;;;4.00;3.50;;;;;25.66;40.99;102014.38;4957361;28;45490;-44
2023/06/24 02:28:46;;;;;;;;;4.50;3.75;;;;;25.65;40.94;102013.56;4958242;28;46436;-42
2023/06/24 02:31:12;;;;;;;;;4.00;4.00;;;;;25.66;40.82;102011.75;4957859;28;45464;-42
2023/06/24 02:33:38;;;;;;;;;3.25;3.25;;;;;25.61;40.76;102015.53;4958410;28;45258;-44
2023/06/24 02:36:04;;;;;;;;;4.50;4.50;;;;;25.63;40.92;102016.28;4958682;28;45560;-42
2023/06/24 02:38:29;;;;;;;;;5.00;4.00;;;;;25.65;41.06;102012.69;4958214;28;46175;-44
2023/06/24 02:40:54;;;;;;;;;4.25;4.00;;;;;25.63;40.86;102008.31;4958142;28;45247;-43
2023/06/24 02:43:20;;;;;;;;;6.00;5.00;;;;;25.62;40.69;102009.28;4958345;28;45403;-43
2023/06/24 02:45:47;;;;;;;;;4.00;3.00;;;;;25.63;40.74;102010.97;4958702;28;45552;-43
2023/06/24 02:48:14;;;;;;;;;5.00;3.25;;;;;25.64;40.99;102009.19;4958414;28;46380;-46
2023/06/24 02:50:43;;;;;;;;;5.25;4.00;;;;;25.63;41.04;102008.31;4958151;28;45710;-42
2023/06/24 02:53:10;;;;;;;;;5.00;4.00;;;;;25.62;40.93;102011.94;4957021;28;45499;-41
2023/06/24 02:55:37;;;;;;;;;4.75;4.75;;;;;25.62;41.25;102011.94;4958380;28;45736;-43
2023/06/24 02:58:03;;;;;;;;;3.75;3.75;;;;;25.60;41.14;102010.28;4956616;28;45366;-43
2023/06/24 03:00:29;;;;;;;;;5.25;3.75;;;;;25.60;40.81;102008.50;4958043;28;45710;-44
2023/06/24 03:02:55;;;;;;;;;4.00;3.25;;;;;25.59;41.22;102005.94;4957835;28;45394;-48
2023/06/24 03:05:25;;;;;;;;;4.00;3.00;;;;;25.57;41.05;102006.03;4958324;28;45305;-46
2023/06/24 03:07:51;;;;;;;;;5.25;5.00;;;;;25.59;41.10;102012.13;4957658;28;46208;-42
2023/06/24 03:10:16;;;;;;;;;2.75;2.75;;;;;25.57;41.17;102000.72;4958095;28;45369;-44
2023/06/24 03:12:42;;;;;;;;;4.00;4.00;;;;;25.58;41.19;102007.75;4956722;28;45252;-44
2023/06/24 03:15:09;;;;;;;;;4.25;4.25;;;;;25.59;40.83;102008.59;4958311;28;46113;-47
2023/06/24 03:17:34;;;;;;;;;3.25;3.25;;;;;25.58;40.87;102010.41;4957564;28;45610;-42
2023/06/24 03:20:00;;;;;;;;;4.50;4.50;;;;;25.57;40.69;102006.03;4957623;28;45328;-44
2023/06/24 03:22:25;;;;;;;;;4.00;4.00;;;;;25.57;41.14;102011.34;4957772;28;45451;-44
2023/06/24 03:24:52;;;;;;;;;4.00;3.00;;;;;25.56;40.96;102004.31;4957870;28;45616;-45
2023/06/24 03:27:18;;;;;;;;;3.50;3.50;;;;;25.55;40.97;101999.94;4957985;28;46925;-45
2023/06/24 03:29:44;;;;;;;;;3.75;3.75;;;;;25.55;41.21;102002.59;4956632;28;45829;-44
2023/06/24 03:32:09;;;;;;;;;5.00;3.25;;;;;25.55;41.48;102001.75;4957529;28;45313;-42
2023/06/24 03:34:35;;;;;;;;;5.00;4.00;;;;;25.54;40.96;102000.88;4957589;28;45230;-44
2023/06/24 03:37:00;;;;;;;;;5.50;4.00;;;;;25.54;40.92;102003.53;4957285;28;46024;-43
2023/06/24 03:39:25;;;;;;;;;4.25;3.75;;;;;25.55;41.11;102001.75;4957252;28;45285;-44
2023/06/24 03:41:51;;;;;;;;;5.50;3.75;;;;;25.51;40.89;102001.09;4957566;28;45340;-44
2023/06/24 03:44:16;;;;;;;;;5.50;4.75;;;;;25.54;41.30;102011.50;4957983;28;45223;-45
2023/06/24 03:46:41;;;;;;;;;4.00;4.00;;;;;25.52;41.22;102002.78;4957131;28;46430;-44
2023/06/24 03:49:07;;;;;;;;;5.50;5.25;;;;;25.54;41.22;102011.50;4956111;28;45200;-45
2023/06/24 03:51:32;;;;;;;;;3.00;3.00;;;;;25.52;40.98;102013.41;4956101;28;45702;-44
2023/06/24 03:53:58;;;;;;;;;4.25;4.25;;;;;25.52;41.25;102013.41;4957539;28;45472;-43
2023/06/24 03:56:23;;;;;;;;;7.00;5.75;;;;;25.51;40.70;102019.69;4957235;28;46304;-44
2023/06/24 03:58:48;;;;;;;;;4.50;3.00;;;;;25.51;41.00;102017.03;4957451;28;45245;-45
2023/06/24 04:01:14;;;;;;;;;4.25;3.50;;;;;25.47;41.34;102016.31;4957237;28;45226;-44
2023/06/24 04:03:39;;;;;;;;;3.25;1.50;;;;;25.51;40.83;102026.75;4957326;28;45396;-42
2023/06/24 04:06:04;;;;;;;;;3.00;3.00;;;;;25.49;41.36;102026.88;4957103;28;45396;-44
2023/06/24 04:08:30;;;;;;;;;3.00;3.00;;;;;25.47;41.37;102031.41;4955797;28;45951;-43
2023/06/24 04:11:03;;;;;;;;;4.75;4.75;;;;;25.47;41.40;102034.91;4957249;28;45403;-44
2023/06/24 04:13:29;;;;;;;;;4.75;3.25;;;;;25.45;41.03;102018.22;4957254;28;45520;-41
2023/06/24 04:15:54;;;;;;;;;5.50;4.25;;;;;25.46;40.83;102027.03;4956840;28;45301;-44
2023/06/24 04:18:20;;;;;;;;;4.25;3.00;;;;;25.45;40.94;102028.84;4957266;28;45412;-42
2023/06/24 04:20:46;;;;;;;;;6.00;4.75;;;;;25.45;41.48;102023.53;4957052;28;45388;-48
2023/06/24 04:23:14;;;;;;;;;4.75;3.75;;;;;25.44;41.41;102013.00;4957244;28;45363;-44
2023/06/24 04:25:39;;;;;;;;;4.00;4.00;;;;;25.42;41.08;102018.41;4956823;28;45520;-47
2023/06/24 04:28:04;;;;;;;;;4.50;4.50;;;;;25.44;41.02;102019.16;4956896;28;45391;-47
2023/06/24 04:30:31;;;;;;;;;5.00;4.75;;;;;25.43;41.41;102024.53;4956939;28;45432;-45
2023/06/24 04:32:56;;;;;;;;;5.50;4.25;;;;;25.44;41.36;102021.81;4957169;28;45577;-44
2023/06/24 04:35:21;;;;;;;;;3.25;3.25;;;;;25.41;41.08;102014.03;4955916;28;45640;-44
2023/06/24 04:37:49;;;;;;;;;3.75;3.75;;;;;25.43;40.89;102025.41;4956937;28;45369;-43
2023/06/24 04:40:15;;;;;;;;;4.00;3.00;;;;;25.43;40.80;102020.13;4956674;28;45436;-45
2023/06/24 04:42:40;;;;;;;;;4.75;4.75;;;;;25.43;41.16;102019.25;4956947;28;45238;-43
2023/06/24 04:45:06;;;;;;;;;3.00;3.00;;;;;25.43;41.26;102021.91;4956472;28;46477;-46
2023/06/24 04:47:31;;;;;;;;;3.25;3.00;;;;;25.41;41.13;102021.16;4956631;28;45306;-42
2023/06/24 04:49:56;;;;;;;;;4.00;4.00;;;;;25.39;41.13;102021.19;4956733;28;45412;-48
2023/06/24 04:52:23;;;;;;;;;2.00;2.00;;;;;25.42;41.59;102026.38;4956414;28;58703;-44
2023/06/24 04:54:48;;;;;;;;;4.50;4.50;;;;;25.42;41.18;102028.16;4959291;28;45488;-44
2023/06/24 04:57:26;;;;;;;;;4.25;4.25;;;;;25.41;40.90;102026.47;4958850;28;45355;-44
2023/06/24 04:59:51;;;;;;;;;5.25;4.00;;;;;25.40;41.21;102030.03;4960101;28;45165;-41
2023/06/24 05:02:17;;;;;;;;;3.50;3.00;;;;;25.38;41.24;102026.59;4960119;28;45639;-44
2023/06/24 05:04:42;;;;;;;;;4.00;3.50;;;;;25.39;41.25;102020.34;4958247;28;47415;-42
2023/06/24 05:07:07;;;;;;;;;4.50;3.50;;;;;25.39;41.06;102023.00;4959327;28;55495;-44
2023/06/24 05:09:32;;;;;;;;;4.00;3.25;;;;;25.39;41.35;102020.34;4959824;28;45457;-43
2023/06/24 05:11:58;;;;;;;;;3.50;3.50;;;;;25.39;41.36;102018.53;4959228;28;52104;-43
2023/06/24 05:14:23;;;;;;;;;2.75;2.75;;;;;25.39;41.00;102017.69;4959667;28;53036;-47
2023/06/24 05:16:48;;;;;;;;;4.50;3.25;;;;;25.39;40.99;102023.00;4959061;28;57146;-45
2023/06/24 05:19:14;;;;;;;;;4.00;4.00;;;;;25.37;41.37;102019.56;4959653;28;45334;-45
2023/06/24 05:21:39;;;;;;;;;5.25;3.25;;;;;25.38;40.76;102027.44;4959906;28;45408;-45
2023/06/24 05:24:05;;;;;;;;;4.00;4.00;;;;;25.39;41.21;102023.00;4959415;28;46453;-45
2023/06/24 05:26:30;;;;;;;;;4.75;4.00;;;;;25.39;40.97;102021.19;4959495;28;45439;-45
2023/06/24 05:28:55;;;;;;;;;5.25;3.00;;;;;25.39;41.44;102023.00;4959533;28;45293;-47
2023/06/24 05:31:21;;;;;;;;;5.50;4.00;;;;;25.40;41.09;102020.28;4959546;28;49463;-42
2023/06/24 05:33:46;;;;;;;;;4.25;4.25;;;;;25.39;40.88;102021.19;4959322;28;46463;-43
2023/06/24 05:36:11;;;;;;;;;4.25;3.00;;;;;25.40;40.71;102028.25;4959208;28;45340;-44
2023/06/24 05:38:37;;;;;;;;;4.25;4.25;;;;;25.40;40.98;102030.03;4959404;28;45265;-44
2023/06/24 05:41:02;;;;;;;;;3.00;3.00;;;;;25.40;41.12;102030.91;4959527;28;45589;-42
2023/06/24 05:43:28;;;;;;;;;4.25;3.00;;;;;25.40;40.87;102030.91;4958788;28;45383;-43
2023/06/24 05:45:53;;;;;;;;;4.50;3.50;;;;;25.40;40.44;102030.91;4959404;28;45439;-44
2023/06/24 05:48:18;;;;;;;;;2.50;2.25;;;;;25.41;41.02;102026.47;4959245;28;45360;-44
2023/06/24 05:50:44;;;;;;;;;5.50;4.25;;;;;25.41;40.73;102029.94;4959274;28;45436;-41
2023/06/24 05:53:09;;;;;;;;;4.00;3.00;;;;;25.41;40.81;102029.13;4958909;28;45351;-45
2023/06/24 05:55:34;;;;;;;;;4.00;4.00;;;;;25.41;40.42;102029.94;4958783;28;45964;-43
2023/06/24 05:58:00;;;;;;;;;5.75;4.00;;;;;25.42;40.34;102022.84;4958967;28;45248;-44
2023/06/24 06:00:25;;;;;;;;;5.00;4.00;;;;;25.42;40.92;102023.72;4959479;28;45564;-45
2023/06/24 06:02:50;;;;;;;;;5.00;5.00;;;;;25.43;41.07;102027.19;4958721;28;45361;-43
2023/06/24 06:05:16;;;;;;;;;5.75;4.00;;;;;25.42;40.78;102033.44;4957786;28;45325;-45
2023/06/24 06:07:42;;;;;;;;;3.50;3.00;;;;;25.39;41.01;102030.97;4958961;28;45303;-42
2023/06/24 06:10:08;;;;;;;;;8.00;4.00;;;;;25.36;40.70;102033.78;4959037;28;45816;-43
2023/06/24 06:12:34;;;;;;;;;6.00;4.00;;;;;25.32;40.81;102033.94;4957286;28;47523;-47
2023/06/24 06:14:59;;;;;;;;;6.00;5.50;;;;;25.28;41.06;102028.91;4958751;28;45527;-47
2023/06/24 06:17:24;;;;;;;;;4.25;3.00;;;;;25.27;41.06;102028.06;4959169;28;45395;-42
2023/06/24 06:19:49;;;;;;;;;5.00;5.00;;;;;25.25;41.07;102027.28;4958652;28;45705;-45
2023/06/24 06:22:15;;;;;;;;;4.67;4.00;;;;;25.24;40.67;102025.59;4957789;28;67848;-42
2023/06/24 06:24:40;;;;;;;;;5.00;4.00;;;;;25.23;41.14;102029.16;4958314;28;45353;-46
2023/06/24 06:27:10;;;;;;;;;4.50;4.00;;;;;25.24;41.11;102030.88;4958518;28;45703;-44
2023/06/24 06:29:36;;;;;;;;;7.00;5.00;;;;;25.23;41.09;102034.47;4958693;28;45297;-45
2023/06/24 06:32:01;;;;;;;;;4.75;3.00;;;;;25.24;40.69;102028.22;4958328;28;46539;-42
2023/06/24 06:34:26;;;;;;;;;4.50;4.50;;;;;25.25;40.78;102031.72;4958592;28;45245;-43
2023/06/24 06:36:52;;;;;;;;;4.50;4.00;;;;;25.24;40.61;102035.34;4958202;28;47634;-46
2023/06/24 06:39:17;;;;;;;;;3.75;3.75;;;;;25.22;40.75;102032.75;4958296;28;45561;-45
2023/06/24 06:41:42;;;;;;;;;4.25;4.25;;;;;25.23;40.61;102031.81;4958055;28;48965;-43
2023/06/24 06:44:07;;;;;;;;;9.00;5.50;;;;;25.22;40.76;102027.47;4956891;28;45464;-45
2023/06/24 06:46:33;;;;;;;;;5.25;5.25;;;;;25.22;40.57;102031.94;4958223;28;45266;-46
2023/06/24 06:48:59;;;;;;;;;5.25;5.25;;;;;25.21;41.17;102030.22;4958353;28;45613;-44
2023/06/24 06:51:25;;;;;;;;;6.75;4.50;;;;;25.20;41.25;102031.16;4958240;28;46525;-43
2023/06/24 06:53:51;;;;;;;;;6.00;5.25;;;;;25.20;41.17;102033.81;4958002;28;45378;-42
2023/06/24 06:56:22;;;;;;;;;3.25;3.25;;;;;25.19;40.65;102027.63;4958061;28;45381;-42
2023/06/24 06:58:47;;;;;;;;;6.00;5.00;;;;;25.21;40.82;102022.25;4958302;28;45225;-42
2023/06/24 07:01:13;;;;;;;;;6.00;4.50;;;;;25.20;41.13;102029.34;4957830;28;45222;-44
2023/06/24 07:03:39;;;;;;;;;7.00;5.00;;;;;25.19;40.66;102024.97;4957761;28;45395;-42
2023/06/24 07:06:05;;;;;;;;;5.25;5.25;;;;;25.17;40.99;102024.22;4957866;28;45421;-42
2023/06/24 07:08:30;;;;;;;;;3.25;3.25;;;;;25.18;41.11;102025.94;4957155;28;45468;-43
2023/06/24 07:10:56;;;;;;;;;4.75;4.75;;;;;25.16;41.21;102025.16;4957888;28;46431;-45
2023/06/24 07:13:21;;;;;;;;;4.75;4.00;;;;;25.14;40.83;102022.59;4957779;28;45452;-46
2023/06/24 07:15:46;;;;;;;;;4.00;4.00;;;;;25.17;41.30;102026.88;4957779;28;45472;-43
2023/06/24 07:18:12;;;;;;;;;6.00;3.50;;;;;25.16;41.28;102017.22;4957203;28;51224;-46
2023/06/24 07:20:37;;;;;;;;;5.50;4.00;;;;;25.20;40.97;102029.34;4956212;28;48519;-44
2023/06/24 07:23:03;;;;;;;;;7.50;3.50;;;;;25.21;40.50;102022.25;4957055;28;61007;-43
2023/06/24 07:25:29;;;;;;;;;5.00;5.00;;;;;25.17;40.82;102019.75;4956743;28;45578;-46
2023/06/24 07:27:54;;;;;;;;;6.25;4.25;;;;;25.22;41.06;102027.47;4956564;28;45577;-44
2023/06/24 07:30:20;;;;;;;;;7.00;5.00;;;;;25.23;40.63;102017.72;4957378;28;47097;-44
2023/06/24 07:32:45;;;;;;;;;4.00;4.00;;;;;25.22;40.54;102016.00;4956285;28;45470;-47
2023/06/24 07:35:11;;;;;;;;;6.25;5.00;;;;;25.25;40.72;102013.16;4957601;28;45580;-44
2023/06/24 07:37:36;;;;;;;;;4.75;4.00;;;;;25.26;40.27;102013.09;4957852;28;45221;-44
2023/06/24 07:40:03;;;;;;;;;4.50;3.75;;;;;25.28;40.49;102016.50;4957577;28;45647;-46
2023/06/24 07:42:28;;;;;;;;;4.00;3.75;;;;;25.30;40.58;102013.75;4957767;28;45597;-45
2023/06/24 07:44:54;;;;;;;;;6.50;3.25;;;;;25.28;40.04;102013.84;4957116;28;54970;-49
2023/06/24 07:47:19;;;;;;;;;3.25;3.25;;;;;25.31;40.29;102020.78;4957765;28;45226;-46
2023/06/24 07:49:44;;;;;;;;;7.00;4.50;;;;;25.29;40.42;102015.56;4957252;28;45475;-46
2023/06/24 07:52:10;;;;;;;;;5.75;5.00;;;;;25.34;40.25;102017.09;4957197;28;45395;-43
2023/06/24 07:54:35;;;;;;;;;7.00;5.50;;;;;25.35;40.17;102016.16;4957236;28;45468;-44
2023/06/24 07:57:01;;;;;;;;;6.00;5.50;;;;;25.35;40.27;102016.16;4957725;28;45321;-42
2023/06/24 07:59:26;;;;;;;;;7.50;4.00;;;;;25.37;40.13;102009.81;4959461;28;45462;-45
2023/06/24 08:01:52;;;;;;;;;3.00;3.00;;;;;25.37;40.17;102015.09;4976686;28;45334;-46
2023/06/24 08:04:17;;;;;;;;;5.00;4.25;;;;;25.37;40.01;102008.97;4976575;28;45324;-44
2023/06/24 08:06:42;;;;;;;;;5.00;4.25;;;;;25.39;40.35;102017.69;4976886;28;45341;-44
2023/06/24 08:09:08;;;;;;;;;3.00;3.00;;;;;25.41;40.35;102014.03;4976352;28;46794;-43
2023/06/24 08:11:33;;;;;;;;;3.25;3.25;;;;;25.40;40.03;102014.09;4976777;28;45363;-46
2023/06/24 08:13:58;;;;;;;;;5.00;3.50;;;;;25.44;40.10;102010.34;4969944;28;47693;-45
2023/06/24 08:16:24;;;;;;;;;6.75;5.75;;;;;25.44;40.51;102008.56;4956502;28;45266;-49
2023/06/24 08:18:49;;;;;;;;;4.00;4.00;;;;;25.38;40.19;101995.59;4954750;28;47839;-48
2023/06/24 08:21:14;;;;;;;;;8.25;5.00;;;;;25.44;40.09;101997.06;4956366;28;45276;-47
2023/06/24 08:23:40;;;;;;;;;5.50;5.50;;;;;25.47;40.45;102005.69;4956541;28;45285;-46
2023/06/24 08:26:07;;;;;;;;;4.75;4.25;;;;;25.49;40.49;102005.63;4957091;28;45345;-46
2023/06/24 08:28:32;;;;;;;;;5.00;4.00;;;;;25.44;40.34;101994.41;4957777;28;45434;-45
2023/06/24 08:30:57;;;;;;;;;6.25;5.00;;;;;25.52;40.47;102007.25;4959970;28;51901;-47
2023/06/24 08:33:23;;;;;;;;;7.00;5.50;;;;;25.55;40.28;102001.75;4960288;28;45385;-49
2023/06/24 08:35:48;;;;;;;;;5.00;4.50;;;;;25.55;40.59;101997.28;4960415;28;45554;-42
2023/06/24 08:38:13;;;;;;;;;8.00;5.00;;;;;25.58;39.76;101999.78;4959719;28;45446;-41
2023/06/24 08:40:40;;;;;;;;;6.50;5.00;;;;;25.60;40.14;102005.00;4959630;28;45431;-44
2023/06/24 08:43:06;;;;;;;;;8.00;5.50;;;;;25.61;40.14;101996.94;4958407;28;45446;-42
2023/06/24 08:45:31;;;;;;;;;7.50;4.50;;;;;25.61;40.14;101988.13;4956118;28;45461;-44
2023/06/24 08:47:58;;;;;;;;;6.50;5.25;;;;;25.65;40.17;101994.09;4959181;28;46154;-44
2023/06/24 08:50:30;;;;;;;;;7.75;5.00;;;;;25.67;40.08;101992.22;4959325;28;45408;-46
2023/06/24 08:52:57;;;;;;;;;5.75;5.50;;;;;25.67;40.31;101987.78;4959844;28;45406;-44
2023/06/24 08:55:27;;;;;;;;;5.00;5.00;;;;;25.66;40.02;101987.84;4960230;28;45646;-44
2023/06/24 08:57:53;;;;;;;;;6.50;6.00;;;;;25.68;39.77;101986.81;4959871;28;46561;-44
2023/06/24 09:00:18;;;;;;;;;5.75;5.75;;;;;25.69;39.99;101983.19;4959667;28;45353;-46
2023/06/24 09:02:45;;;;;;;;;4.25;4.25;;;;;25.67;39.97;101979.81;4958317;28;45268;-45
2023/06/24 09:05:10;;;;;;;;;9.00;7.00;;;;;25.70;40.52;101978.75;4959805;28;45465;-46
2023/06/24 09:07:36;;;;;;;;;6.25;4.75;;;;;25.72;39.91;101982.19;4959235;28;45555;-42
2023/06/24 09:10:03;;;;;;;;;4.25;4.00;;;;;25.73;40.19;101970.63;4959705;28;45680;-45
2023/06/24 09:12:32;;;;;;;;;5.25;5.25;;;;;25.73;40.21;101970.63;4959969;28;45432;-42
2023/06/24 09:14:58;;;;;;;;;4.50;4.50;;;;;25.73;40.46;101960.84;4959908;28;45315;-45
2023/06/24 09:17:23;;;;;;;;;4.25;4.25;;;;;25.72;40.14;101963.59;4959507;28;45605;-46
2023/06/24 09:19:50;;;;;;;;;3.75;3.75;;;;;25.74;39.81;101970.50;4959361;28;45263;-44
2023/06/24 09:22:18;;;;;;;;;2.00;2.00;;;;;25.75;40.51;101960.72;4959559;28;45408;-46
2023/06/24 09:24:48;;;;;;;;;4.25;4.00;;;;;25.75;40.25;101963.38;4959664;28;45574;-44
2023/06/24 09:27:15;;;;;;;;;6.25;5.00;;;;;25.75;40.01;101960.72;4957992;28;48332;-46
2023/06/24 09:29:42;;;;;;;;;5.00;4.00;;;;;25.77;40.56;101957.06;4959501;28;45721;-43
2023/06/24 09:32:08;;;;;;;;;6.50;4.25;;;;;25.79;40.00;101954.31;4959909;28;45427;-44
2023/06/24 09:34:34;;;;;;;;;7.25;6.00;;;;;25.78;40.11;101949.94;4959503;28;45542;-47
2023/06/24 09:36:59;;;;;;;;;4.75;4.00;;;;;25.80;39.99;101941.91;4959409;28;46410;-48
2023/06/24 09:39:30;;;;;;;;;4.25;4.25;;;;;25.79;40.44;101943.69;4959075;28;45243;-46
2023/06/24 09:42:00;;;;;;;;;6.50;5.50;;;;;25.80;40.20;101948.03;4959418;28;45828;-45
2023/06/24 09:44:29;;;;;;;;;6.25;5.50;;;;;25.81;40.20;101940.91;4959592;28;45461;-50
2023/06/24 09:46:58;;;;;;;;;5.75;5.00;;;;;25.82;40.16;101932.00;4959220;28;45773;-44
2023/06/24 09:49:24;;;;;;;;;4.75;4.75;;;;;25.80;39.97;101932.13;4959055;28;45774;-43
2023/06/24 09:51:55;;;;;;;;;3.75;3.75;;;;;25.83;40.13;101926.63;4941952;28;45343;-44
2023/06/24 09:54:21;;;;;;;;;6.25;4.25;;;;;25.83;39.90;101929.28;4959301;28;45530;-44
2023/06/24 09:56:50;;;;;;;;;5.50;4.75;;;;;25.84;39.73;101922.16;4958842;28;45507;-44
2023/06/24 09:59:21;;;;;;;;;8.00;6.00;;;;;25.84;40.51;101923.03;4958786;28;45242;-45
2023/06/24 10:01:47;;;;;;;;;5.00;5.00;;;;;25.83;40.35;101909.81;4959092;28;45475;-46
2023/06/24 10:04:18;;;;;;;;;6.00;6.00;;;;;25.87;40.39;101914.84;4957893;28;45519;-44
2023/06/24 10:06:43;;;;;;;;;7.00;5.00;;;;;25.88;40.36;101907.75;4958752;28;46064;-45
2023/06/24 10:09:09;;;;;;;;;7.00;5.25;;;;;25.85;40.06;101898.16;4959149;28;45444;-42
2023/06/24 10:11:35;;;;;;;;;6.75;5.25;;;;;25.88;40.62;101900.63;4958941;28;45506;-44
2023/06/24 10:14:01;;;;;;;;;9.50;6.00;;;;;25.90;40.42;101906.69;4958885;28;45419;-45
2023/06/24 10:16:26;;;;;;;;;6.00;5.25;;;;;25.90;40.67;101900.53;4958679;28;46465;-45
2023/06/24 10:18:51;;;;;;;;;6.00;6.00;;;;;25.91;40.43;101897.78;4958726;28;45372;-45
2023/06/24 10:21:17;;;;;;;;;6.50;5.00;;;;;25.88;40.15;101891.81;4958723;28;45323;-45
2023/06/24 10:23:55;;;;;;;;;8.00;7.00;;;;;25.90;40.55;101888.09;4957617;28;45354;-44
2023/06/24 10:26:30;;;;;;;;;7.00;7.00;;;;;25.93;40.86;101890.59;4958497;28;47561;-46
2023/06/24 10:29:04;;;;;;;;;7.00;5.75;;;;;25.93;40.72;101879.97;4958651;28;45242;-46
2023/06/24 10:31:50;;;;;;;;;7.25;5.75;;;;;25.92;40.75;101874.72;4958622;28;45317;-46
2023/06/24 10:34:22;;;;;;;;;7.00;6.00;;;;;25.96;41.11;101878.06;4958615;28;45427;-43
2023/06/24 10:37:01;;;;;;;;;7.25;6.00;;;;;25.97;40.96;101874.44;4958364;28;46588;-44
2023/06/24 10:39:50;;;;;;;;;7.50;7.50;;;;;25.95;40.83;101869.22;4956863;28;45684;-43
2023/06/24 10:42:25;;;;;;;;;10.75;7.00;;;;;26.00;41.06;101863.63;4957170;28;45409;-41
2023/06/24 10:44:52;;;;;;;;;6.50;6.50;;;;;26.02;41.17;101861.72;4958419;28;45400;-44
2023/06/24 10:47:18;;;;;;;;;8.50;7.00;;;;;26.01;40.71;101860.03;4957476;28;45347;-43
2023/06/24 10:49:43;;;;;;;;;8.50;7.50;;;;;26.01;40.71;101854.72;4957788;28;45766;-45
2023/06/24 10:52:13;;;;;;;;;8.25;5.75;;;;;26.02;40.61;101853.75;4958026;28;45470;-44
2023/06/24 10:54:39;;;;;;;;;7.25;7.25;;;;;26.05;40.74;101851.75;4958355;28;45544;-46
2023/06/24 10:57:10;;;;;;;;;9.25;8.00;;;;;26.07;40.73;101847.22;4958087;28;45508;-43
2023/06/24 10:59:42;;;;;;;;;8.75;7.00;;;;;26.05;40.88;101846.44;4958231;28;45726;-43
2023/06/24 11:02:11;;;;;;;;;6.50;6.50;;;;;26.07;40.70;101849.03;4958277;28;45340;-44
2023/06/24 11:04:48;;;;;;;;;8.00;6.25;;;;;26.08;41.04;101845.38;4958204;28;45258;-49
2023/06/24 11:07:14;;;;;;;;;6.75;5.50;;;;;26.04;40.56;101841.25;4958365;28;46153;-49
2023/06/24 11:09:41;;;;;;;;;7.50;6.75;;;;;26.07;40.93;101833.91;4958260;28;45682;-45
2023/06/24 11:12:09;;;;;;;;;6.75;6.75;;;;;26.08;40.74;101832.09;4958045;28;45321;-43
2023/06/24 11:14:34;;;;;;;;;9.50;9.00;;;;;26.08;40.78;101829.44;4958051;28;45519;-44
2023/06/24 11:17:03;;;;;;;;;6.75;6.50;;;;;26.08;40.96;101834.75;4957680;28;46519;-43
2023/06/24 11:19:30;;;;;;;;;6.75;6.75;;;;;26.08;40.52;101827.66;4957681;28;45348;-44
2023/06/24 11:21:59;;;;;;;;;7.50;7.00;;;;;26.09;40.99;101825.84;4956568;28;45508;-45
2023/06/24 11:24:24;;;;;;;;;7.00;7.00;;;;;26.09;41.04;101831.16;4957919;28;45404;-44